Time;durP1;ratioP1;P1;durP2;ratioP2;P2;SDS_P1;SDS_P2;PMS_P1;PMS_P2;Temp;Humidity;BMP_temperature;BMP_pressure;BME280_temperature;BME280_humidity;BME280_pressure;Samples;Min_cycle;Max_cycle;Signal;HPM_P1;HPM_P2
2022/05/27 00:02:10;;;;;;;19.75;4.60;;;14.50;99.90;;;;;;5034209;28;20087;-84
2022/05/27 00:04:36;;;;;;;23.98;5.18;;;14.40;99.90;;;;;;5033874;28;20048;-85
2022/05/27 00:07:02;;;;;;;25.35;4.10;;;14.40;99.90;;;;;;5049812;28;20127;-84
2022/05/27 00:09:28;;;;;;;20.35;4.15;;;14.40;99.90;;;;;;5067934;28;20521;-84
2022/05/27 00:11:53;;;;;;;24.10;4.82;;;14.30;99.90;;;;;;5034497;28;20044;-84
2022/05/27 00:14:19;;;;;;;27.75;4.43;;;14.30;99.90;;;;;;5066268;28;20415;-84
2022/05/27 00:16:45;;;;;;;30.60;4.35;;;14.20;99.90;;;;;;5034552;28;20062;-84
2022/05/27 00:19:16;;;;;;;19.45;3.63;;;14.20;99.90;;;;;;5066055;28;20052;-84
2022/05/27 00:21:42;;;;;;;25.10;3.80;;;14.20;99.90;;;;;;5050467;28;20040;-84
2022/05/27 00:24:14;;;;;;;23.88;4.13;;;14.10;99.90;;;;;;5033136;28;20152;-84
2022/05/27 00:26:39;;;;;;;21.35;3.83;;;14.10;99.90;;;;;;5067484;28;20052;-84
2022/05/27 00:29:05;;;;;;;22.92;4.22;;;14.00;99.90;;;;;;5043873;28;20049;-84
2022/05/27 00:31:32;;;;;;;23.35;3.42;;;14.00;99.90;;;;;;5050809;28;20131;-84
2022/05/27 00:33:58;;;;;;;19.13;3.65;;;13.90;99.90;;;;;;5048589;28;20421;-84
2022/05/27 00:36:24;;;;;;;19.70;3.85;;;14.00;99.90;;;;;;5050678;28;20048;-84
2022/05/27 00:38:50;;;;;;;22.60;3.58;;;13.90;99.90;;;;;;5050443;28;20446;-85
2022/05/27 00:41:17;;;;;;;16.63;3.42;;;13.90;99.90;;;;;;5049237;28;20048;-85
2022/05/27 00:43:43;;;;;;;20.65;3.95;;;13.90;99.90;;;;;;5050754;28;20094;-85
2022/05/27 00:46:20;;;;;;;20.02;3.53;;;13.80;99.90;;;;;;5049362;28;20044;-85
2022/05/27 00:48:50;;;;;;;19.35;3.80;;;13.80;99.90;;;;;;5048669;28;20044;-85
2022/05/27 00:51:19;;;;;;;24.45;4.32;;;13.80;99.90;;;;;;5050177;28;20048;-85
2022/05/27 00:53:53;;;;;;;27.55;4.10;;;13.70;99.90;;;;;;5049806;28;20118;-84
2022/05/27 00:56:23;;;;;;;21.75;3.30;;;13.70;99.90;;;;;;5032717;28;20107;-84
2022/05/27 00:58:54;;;;;;;26.08;5.00;;;13.70;99.90;;;;;;5050262;28;20044;-85
2022/05/27 01:01:20;;;;;;;26.35;3.55;;;13.60;99.90;;;;;;5049738;28;20056;-86
2022/05/27 01:03:46;;;;;;;26.15;3.85;;;13.60;99.90;;;;;;5049067;28;20036;-84
2022/05/27 01:06:12;;;;;;;21.75;3.63;;;13.60;99.90;;;;;;5049185;28;20095;-85
2022/05/27 01:08:38;;;;;;;16.95;3.35;;;13.60;99.90;;;;;;5049725;28;20044;-85
2022/05/27 01:11:13;;;;;;;24.05;4.40;;;13.60;99.90;;;;;;5049319;28;20064;-85
2022/05/27 01:14:08;;;;;;;22.65;3.58;;;13.50;99.90;;;;;;5033469;28;20048;-85
2022/05/27 01:16:54;;;;;;;21.40;3.63;;;13.50;99.90;;;;;;5033431;28;20510;-84
2022/05/27 01:22:56;;;;;;;19.73;3.40;;;13.40;99.90;;;;;;5050058;28;20053;-84
2022/05/27 01:25:50;;;;;;;17.30;3.17;;;13.40;99.90;;;;;;5048694;28;20086;-85
2022/05/27 01:28:34;;;;;;;17.02;3.00;;;13.30;99.90;;;;;;5033073;28;20123;-85
2022/05/27 01:31:12;;;;;;;23.67;3.78;;;13.30;99.90;;;;;;5033137;28;20051;-85
2022/05/27 01:33:44;;;;;;;21.65;3.47;;;13.30;99.90;;;;;;5032573;28;20541;-85
2022/05/27 01:36:32;;;;;;;25.88;4.07;;;13.20;99.90;;;;;;5048999;28;20041;-84
2022/05/27 01:39:07;;;;;;;23.70;3.83;;;13.20;99.90;;;;;;5032429;28;20048;-85
2022/05/27 01:41:43;;;;;;;15.40;3.15;;;13.20;99.90;;;;;;5049753;28;20076;-85
2022/05/27 01:44:21;;;;;;;16.52;3.58;;;13.10;99.90;;;;;;5032328;28;20044;-85
2022/05/27 01:46:48;;;;;;;21.58;3.92;;;13.10;99.90;;;;;;5033242;28;20508;-85
2022/05/27 01:49:35;;;;;;;19.63;3.53;;;13.00;99.90;;;;;;5031298;28;20055;-85
2022/05/27 01:52:24;;;;;;;23.50;4.55;;;13.00;99.90;;;;;;5028699;28;20095;-85
2022/05/27 01:55:00;;;;;;;14.60;3.47;;;12.90;99.90;;;;;;5029897;28;20056;-84
2022/05/27 01:57:39;;;;;;;20.83;3.15;;;12.90;99.90;;;;;;5046391;28;20041;-85
2022/05/27 02:00:10;;;;;;;21.98;3.53;;;12.80;99.90;;;;;;5028857;28;20037;-84
2022/05/27 02:02:42;;;;;;;23.33;3.15;;;12.80;99.90;;;;;;5029404;28;20044;-85
2022/05/27 02:05:11;;;;;;;19.30;2.80;;;12.80;99.90;;;;;;5028937;28;20128;-85
2022/05/27 02:07:47;;;;;;;21.50;3.33;;;12.70;99.90;;;;;;5028554;28;20853;-85
2022/05/27 02:10:25;;;;;;;20.27;2.63;;;12.70;99.90;;;;;;5029302;28;20049;-85
2022/05/27 02:12:56;;;;;;;17.13;2.58;;;12.60;99.90;;;;;;5045209;28;20558;-85
2022/05/27 02:15:39;;;;;;;18.08;2.85;;;12.60;99.90;;;;;;5028874;28;20045;-85
2022/05/27 02:18:10;;;;;;;;;;;12.60;99.90;;;;;;5047523;28;20205;-85
2022/05/27 02:20:47;;;;;;;16.45;2.67;;;12.50;99.90;;;;;;5049109;28;19970;-84
2022/05/27 02:23:20;;;;;;;20.95;3.35;;;12.50;99.90;;;;;;5049318;28;20127;-84
2022/05/27 02:25:48;;;;;;;16.95;2.90;;;12.60;99.90;;;;;;5033665;28;20041;-84
2022/05/27 02:28:24;;;;;;;22.45;3.20;;;12.40;99.90;;;;;;5048343;28;20083;-84
2022/05/27 02:30:56;;;;;;;21.52;3.60;;;12.30;99.90;;;;;;5049782;28;20496;-84
2022/05/27 02:36:16;;;;;;;18.83;3.15;;;12.20;99.90;;;;;;5032768;28;20486;-84
2022/05/27 02:38:42;;;;;;;22.35;3.92;;;12.20;99.90;;;;;;5049084;28;20051;-84
2022/05/27 02:41:20;;;;;;;13.57;2.50;;;12.20;99.90;;;;;;5048173;28;20179;-84
2022/05/27 02:44:22;;;;;;;17.25;2.97;;;12.20;99.90;;;;;;5049841;28;20055;-84
2022/05/27 02:47:07;;;;;;;16.75;2.42;;;12.20;99.90;;;;;;5032829;28;20053;-84
2022/05/27 02:49:54;;;;;;;19.85;3.13;;;12.10;99.90;;;;;;5047348;28;20139;-85
2022/05/27 02:52:41;;;;;;;15.85;2.92;;;12.10;99.90;;;;;;5032000;28;20089;-84
2022/05/27 02:55:23;;;;;;;23.05;3.10;;;12.10;99.90;;;;;;5014934;28;20049;-84
2022/05/27 02:57:52;;;;;;;18.60;2.70;;;12.00;99.90;;;;;;5016282;28;20384;-84
2022/05/27 03:00:22;;;;;;;17.50;3.15;;;12.00;99.90;;;;;;5015371;28;20041;-85
2022/05/27 03:02:49;;;;;;;15.02;2.47;;;11.90;99.90;;;;;;5014491;28;20115;-84
2022/05/27 03:05:18;;;;;;;20.92;3.33;;;11.90;99.90;;;;;;5015384;28;20076;-84
2022/05/27 03:08:08;;;;;;;20.77;2.78;;;11.90;99.90;;;;;;5015901;28;20044;-84
2022/05/27 03:11:01;;;;;;;13.43;2.70;;;11.80;99.90;;;;;;5015107;28;20126;-84
2022/05/27 03:13:42;;;;;;;19.90;3.13;;;11.80;99.90;;;;;;5026924;28;20128;-85
2022/05/27 03:16:36;;;;;;;16.00;2.63;;;11.70;99.90;;;;;;5014264;28;20052;-84
2022/05/27 03:19:10;;;;;;;16.00;2.90;;;11.70;99.90;;;;;;5047434;28;20049;-84
2022/05/27 03:21:50;;;;;;;15.13;2.90;;;11.70;99.90;;;;;;5032261;28;20037;-84
2022/05/27 03:24:22;;;;;;;23.67;2.90;;;11.60;99.90;;;;;;5032329;28;20366;-84
2022/05/27 03:26:59;;;;;;;17.13;2.88;;;11.60;99.90;;;;;;5015206;28;20045;-84
2022/05/27 03:29:44;;;;;;;13.80;3.47;;;11.60;99.90;;;;;;5032446;28;20052;-84
2022/05/27 03:32:09;;;;;;;16.83;2.30;;;11.50;99.90;;;;;;5014913;28;20110;-84
2022/05/27 03:34:45;;;;;;;21.42;3.22;;;11.50;99.90;;;;;;5047544;28;20496;-84
2022/05/27 03:37:22;;;;;;;18.55;3.28;;;11.50;99.90;;;;;;5015367;28;20076;-84
2022/05/27 03:39:58;;;;;;;14.68;2.40;;;11.50;99.90;;;;;;5015315;28;20044;-85
2022/05/27 03:42:25;;;;;;;18.92;3.00;;;11.50;99.90;;;;;;5031844;28;20040;-85
2022/05/27 03:45:01;;;;;;;19.65;2.80;;;11.60;99.90;;;;;;5030687;28;20350;-84
2022/05/27 03:47:27;;;;;;;23.42;4.38;;;11.60;99.90;;;;;;5031368;28;20037;-85
2022/05/27 03:49:53;;;;;;;14.10;2.47;;;11.60;99.90;;;;;;5013605;28;20099;-84
2022/05/27 03:52:22;;;;;;;16.00;3.15;;;11.70;99.90;;;;;;5030455;28;20079;-85
2022/05/27 03:54:48;;;;;;;18.23;2.92;;;11.80;99.90;;;;;;5031080;28;20471;-84
2022/05/27 03:57:14;;;;;;;24.08;3.50;;;11.80;99.90;;;;;;5047783;28;20042;-84
2022/05/27 03:59:40;;;;;;;19.77;3.17;;;11.80;99.90;;;;;;5048151;28;20056;-84
2022/05/27 04:02:06;;;;;;;21.00;3.00;;;11.80;99.90;;;;;;5030676;28;20049;-84
2022/05/27 04:04:31;;;;;;;19.35;3.60;;;11.80;99.90;;;;;;5046958;28;20084;-85
2022/05/27 04:06:58;;;;;;;17.58;2.97;;;11.90;99.90;;;;;;5030298;28;20088;-84
2022/05/27 04:09:24;;;;;;;15.88;2.90;;;11.90;99.90;;;;;;5047288;28;20052;-85
2022/05/27 04:11:51;;;;;;;21.00;3.50;;;11.90;99.90;;;;;;5048861;28;20047;-84
2022/05/27 04:14:18;;;;;;;12.73;3.03;;;11.90;99.90;;;;;;5029884;28;20128;-85
2022/05/27 04:16:43;;;;;;;21.70;2.85;;;12.00;99.90;;;;;;5047820;28;20072;-85
2022/05/27 04:19:09;;;;;;;22.05;3.58;;;12.00;99.90;;;;;;5045057;28;20463;-85
2022/05/27 04:21:37;;;;;;;12.13;2.80;;;12.10;99.90;;;;;;5014549;28;20152;-85
2022/05/27 04:24:07;;;;;;;15.20;2.50;;;12.00;99.90;;;;;;5030372;28;20083;-85
2022/05/27 04:26:33;;;;;;;15.90;2.80;;;12.00;99.90;;;;;;5031775;28;20053;-86
2022/05/27 04:29:00;;;;;;;15.85;2.47;;;12.00;99.90;;;;;;5014143;28;20408;-85
2022/05/27 04:31:25;;;;;;;17.45;2.78;;;12.10;99.90;;;;;;5047077;28;20044;-85
2022/05/27 04:33:51;;;;;;;16.73;2.78;;;12.00;99.90;;;;;;5028872;28;20122;-85
2022/05/27 04:36:17;;;;;;;19.08;3.92;;;12.00;99.90;;;;;;5030025;28;20081;-85
2022/05/27 04:38:43;;;;;;;19.65;2.67;;;12.00;99.90;;;;;;5047306;28;20048;-85
2022/05/27 04:41:09;;;;;;;16.10;2.60;;;12.00;99.90;;;;;;5044810;28;20064;-85
2022/05/27 04:43:35;;;;;;;18.98;3.05;;;12.00;99.90;;;;;;5030654;28;20140;-85
2022/05/27 04:46:01;;;;;;;17.35;2.58;;;12.00;99.90;;;;;;5030095;28;20485;-85
2022/05/27 04:48:27;;;;;;;16.15;2.60;;;12.10;99.90;;;;;;5013014;28;20140;-85
2022/05/27 04:50:53;;;;;;;13.85;2.58;;;12.20;99.90;;;;;;5030467;28;20576;-85
2022/05/27 04:53:19;;;;;;;18.00;2.72;;;12.30;99.90;;;;;;5029161;28;20060;-85
2022/05/27 04:55:45;;;;;;;28.35;3.92;;;12.40;99.90;;;;;;5029742;28;20076;-85
2022/05/27 04:58:12;;;;;;;20.75;3.60;;;12.50;99.90;;;;;;5029483;28;20052;-84
2022/05/27 05:00:41;;;;;;;20.80;3.03;;;12.50;99.90;;;;;;5047224;28;20037;-85
2022/05/27 05:03:08;;;;;;;22.63;3.17;;;12.60;99.90;;;;;;5027979;28;20057;-85
2022/05/27 05:05:35;;;;;;;23.15;2.92;;;12.60;99.90;;;;;;5031123;28;20040;-84
2022/05/27 05:08:03;;;;;;;21.05;3.25;;;12.60;99.90;;;;;;5030019;28;20052;-85
2022/05/27 05:10:29;;;;;;;16.20;3.08;;;12.60;99.90;;;;;;5046041;28;20044;-85
2022/05/27 05:12:56;;;;;;;18.40;2.80;;;12.60;99.90;;;;;;5014087;28;20129;-85
2022/05/27 05:15:23;;;;;;;19.23;2.85;;;12.50;99.90;;;;;;5028696;28;20048;-85
2022/05/27 05:17:58;;;;;;;18.80;3.17;;;12.50;99.90;;;;;;5036860;28;20045;-84
2022/05/27 05:20:27;;;;;;;16.50;2.67;;;12.50;99.90;;;;;;5045694;28;20047;-84
2022/05/27 05:22:53;;;;;;;15.20;2.47;;;12.60;99.90;;;;;;5045816;28;20049;-85
2022/05/27 05:25:19;;;;;;;19.33;3.08;;;12.60;99.90;;;;;;5045558;28;20051;-85
2022/05/27 05:27:45;;;;;;;12.25;2.28;;;12.70;99.90;;;;;;5030505;28;20956;-85
2022/05/27 05:30:14;;;;;;;17.20;2.65;;;12.90;99.90;;;;;;5028309;28;20045;-84
2022/05/27 05:32:40;;;;;;;16.02;3.22;;;12.60;99.90;;;;;;5030284;28;20051;-84
2022/05/27 05:35:07;;;;;;;14.73;2.70;;;12.60;99.90;;;;;;5045393;28;20037;-84
2022/05/27 05:37:33;;;;;;;27.40;3.67;;;12.60;99.90;;;;;;5029995;28;20041;-84
2022/05/27 05:39:59;;;;;;;20.38;3.13;;;12.60;99.90;;;;;;5046880;28;20048;-84
2022/05/27 05:42:25;;;;;;;29.15;5.05;;;12.60;99.90;;;;;;5028888;28;20037;-84
2022/05/27 05:44:51;;;;;;;15.18;2.97;;;12.60;99.90;;;;;;5045886;28;20171;-84
2022/05/27 05:47:16;;;;;;;15.48;2.70;;;12.50;99.90;;;;;;5045388;28;20123;-84
2022/05/27 05:49:42;;;;;;;15.93;3.15;;;12.60;99.90;;;;;;5045653;28;20052;-84
2022/05/27 05:52:08;;;;;;;13.25;2.72;;;12.80;99.90;;;;;;5047262;28;20069;-84
2022/05/27 05:54:34;;;;;;;24.65;4.57;;;12.90;99.90;;;;;;5049810;28;20183;-85
2022/05/27 05:57:03;;;;;;;15.73;2.60;;;13.10;99.90;;;;;;5033476;28;20131;-84
2022/05/27 05:59:31;;;;;;;22.27;3.05;;;13.20;99.90;;;;;;5048894;28;20053;-84
2022/05/27 06:01:58;;;;;;;16.45;3.50;;;13.30;99.90;;;;;;5050368;28;20501;-84
2022/05/27 06:04:23;;;;;;;15.15;2.90;;;13.40;99.90;;;;;;5031997;28;20059;-84
2022/05/27 06:06:50;;;;;;;12.90;2.58;;;13.50;99.90;;;;;;5032915;28;20135;-84
2022/05/27 06:09:17;;;;;;;15.10;2.60;;;13.60;99.90;;;;;;5049562;28;20113;-84
2022/05/27 06:11:42;;;;;;;24.05;3.35;;;13.70;99.90;;;;;;5032390;28;20068;-84
2022/05/27 06:14:08;;;;;;;13.60;2.65;;;13.70;99.90;;;;;;5016063;28;20405;-84
2022/05/27 06:16:34;;;;;;;24.23;3.75;;;13.80;99.90;;;;;;5049476;28;20049;-83
2022/05/27 06:19:00;;;;;;;19.95;3.50;;;13.90;99.90;;;;;;5063163;28;20048;-83
2022/05/27 06:21:26;;;;;;;21.42;3.20;;;13.80;99.90;;;;;;5067008;28;20114;-85
2022/05/27 06:23:52;;;;;;;19.75;2.88;;;13.80;99.90;;;;;;5051308;28;20036;-84
2022/05/27 06:26:18;;;;;;;17.48;3.20;;;13.80;99.90;;;;;;5065988;28;20515;-84
2022/05/27 06:34:23;;;;;;;21.48;3.60;;;13.90;99.90;;;;;;5047709;28;20044;-83
2022/05/27 06:36:53;;;;;;;18.90;3.22;;;14.00;99.90;;;;;;5050000;28;20070;-84
2022/05/27 06:39:20;;;;;;;16.67;3.03;;;14.00;99.90;;;;;;5038651;28;20041;-83
2022/05/27 06:41:46;;;;;;;16.67;4.20;;;14.00;99.90;;;;;;5045479;28;20045;-84
2022/05/27 06:44:12;;;;;;;20.55;2.72;;;13.90;99.90;;;;;;5029406;28;20049;-83
2022/05/27 06:46:38;;;;;;;19.77;3.15;;;13.80;99.90;;;;;;5046482;28;20136;-83
2022/05/27 06:49:06;;;;;;;20.25;3.38;;;13.80;99.90;;;;;;5027488;28;20053;-83
2022/05/27 06:51:35;;;;;;;19.30;2.92;;;13.80;99.90;;;;;;5046648;28;20053;-83
2022/05/27 06:54:00;;;;;;;24.58;3.28;;;13.70;99.90;;;;;;5028205;28;20544;-83
2022/05/27 06:56:26;;;;;;;16.20;2.95;;;13.90;99.90;;;;;;5046235;28;20057;-83
2022/05/27 06:58:52;;;;;;;20.65;3.15;;;14.00;99.90;;;;;;5013033;28;20056;-84
2022/05/27 07:01:18;;;;;;;14.25;2.90;;;14.00;99.90;;;;;;5012521;28;20432;-84
2022/05/27 07:03:43;;;;;;;19.08;3.45;;;14.00;99.90;;;;;;5028462;28;20107;-84
2022/05/27 07:06:11;;;;;;;21.67;3.47;;;13.80;99.90;;;;;;5028965;28;20076;-83
2022/05/27 07:08:37;;;;;;;16.73;3.45;;;13.80;99.90;;;;;;5028950;28;20045;-83
2022/05/27 07:11:04;;;;;;;17.13;2.90;;;13.80;99.90;;;;;;5028952;28;20059;-83
2022/05/27 07:13:31;;;;;;;18.95;2.70;;;13.80;99.90;;;;;;5011387;28;20055;-83
2022/05/27 07:15:56;;;;;;;16.60;2.67;;;13.90;99.90;;;;;;5012276;28;20125;-83
2022/05/27 07:18:22;;;;;;;17.40;3.00;;;14.00;99.90;;;;;;5026622;28;20498;-83
2022/05/27 07:20:49;;;;;;;17.63;3.05;;;14.00;99.90;;;;;;5049812;28;20052;-83
2022/05/27 07:23:14;;;;;;;18.48;3.05;;;14.10;99.90;;;;;;5048007;28;20045;-82
2022/05/27 07:25:41;;;;;;;17.08;3.10;;;14.20;99.90;;;;;;5032886;28;20052;-82
2022/05/27 07:28:08;;;;;;;14.52;2.70;;;14.40;99.90;;;;;;5048490;28;20059;-82
2022/05/27 07:30:35;;;;;;;22.42;3.72;;;14.50;99.90;;;;;;5032357;28;20163;-83
2022/05/27 07:33:00;;;;;;;18.15;3.20;;;14.70;99.90;;;;;;5047040;28;20617;-83
2022/05/27 07:35:26;;;;;;;21.20;3.50;;;14.90;99.90;;;;;;5064762;28;20040;-83
2022/05/27 07:37:52;;;;;;;19.40;3.42;;;15.00;99.90;;;;;;5032009;28;21032;-83
2022/05/27 07:40:18;;;;;;;18.92;3.60;;;14.80;99.90;;;;;;5047954;28;20639;-83
2022/05/27 07:42:44;;;;;;;12.98;3.50;;;14.60;99.90;;;;;;5048753;28;20074;-83
2022/05/27 07:45:12;;;;;;;15.57;3.60;;;14.50;99.90;;;;;;5047759;28;20044;-83
2022/05/27 07:47:39;;;;;;;11.52;2.28;;;14.60;99.90;;;;;;5048782;28;20066;-82
2022/05/27 07:50:07;;;;;;;20.15;3.03;;;14.50;99.90;;;;;;5065337;28;20471;-83
2022/05/27 07:52:34;;;;;;;24.15;3.42;;;14.60;99.90;;;;;;5056273;28;20063;-82
2022/05/27 07:55:01;;;;;;;18.23;3.35;;;14.60;99.90;;;;;;5068303;28;20493;-82
2022/05/27 07:57:28;;;;;;;18.13;3.20;;;14.40;99.90;;;;;;5050676;28;20046;-82
2022/05/27 07:59:54;;;;;;;16.70;2.53;;;14.30;99.90;;;;;;5086609;28;20056;-82
2022/05/27 08:02:21;;;;;;;20.70;2.85;;;14.20;99.90;;;;;;5067860;28;20127;-82
2022/05/27 08:04:47;;;;;;;21.75;3.67;;;14.30;99.90;;;;;;5067052;28;20036;-82
2022/05/27 08:07:12;;;;;;;19.00;3.60;;;14.50;99.90;;;;;;5055787;28;20101;-82
2022/05/27 08:09:38;;;;;;;17.65;2.78;;;14.70;99.90;;;;;;5048193;28;20105;-82
2022/05/27 08:12:05;;;;;;;20.45;3.28;;;14.90;99.90;;;;;;5046883;28;20586;-82
2022/05/27 08:14:31;;;;;;;20.05;2.90;;;15.00;99.90;;;;;;5045814;28;20048;-82
2022/05/27 08:16:57;;;;;;;19.02;2.88;;;15.10;99.90;;;;;;5048581;28;20504;-82
2022/05/27 08:19:23;;;;;;;18.50;3.13;;;15.00;99.90;;;;;;5064456;28;20052;-82
2022/05/27 08:21:48;;;;;;;9.60;2.53;;;14.90;99.90;;;;;;5047933;28;20403;-82
2022/05/27 08:24:15;;;;;;;17.02;2.92;;;15.00;99.90;;;;;;5047300;28;20056;-82
2022/05/27 08:26:41;;;;;;;18.15;3.08;;;15.00;99.90;;;;;;5065482;28;20049;-82
2022/05/27 08:29:08;;;;;;;15.77;2.75;;;14.90;99.90;;;;;;5047306;28;20045;-82
2022/05/27 08:31:35;;;;;;;19.33;2.45;;;14.80;99.90;;;;;;5048433;28;20056;-82
2022/05/27 08:39:32;;;;;;;19.63;2.78;;;15.00;99.90;;;;;;5046652;28;20052;-82
2022/05/27 08:42:15;;;;;;;14.57;2.70;;;15.00;99.90;;;;;;5065517;28;20055;-82
2022/05/27 08:45:03;;;;;;;12.88;2.53;;;15.00;99.90;;;;;;5047297;28;20049;-82
2022/05/27 08:47:35;;;;;;;18.70;3.08;;;15.10;99.90;;;;;;5064850;28;20084;-82
2022/05/27 08:50:16;;;;;;;16.08;2.70;;;15.20;99.90;;;;;;5046637;28;20143;-82
2022/05/27 08:52:49;;;;;;;13.88;3.00;;;15.30;99.90;;;;;;5047918;28;20055;-82
2022/05/27 09:01:18;;;;;;;19.25;3.15;;;15.40;99.90;;;;;;5068050;28;20455;-83
2022/05/27 09:04:00;;;;;;;16.50;3.30;;;15.40;99.90;;;;;;5086022;28;20044;-82
2022/05/27 09:06:36;;;;;;;19.85;3.40;;;15.20;99.90;;;;;;5067248;28;20086;-81
2022/05/27 09:09:06;;;;;;;14.93;2.38;;;15.40;99.90;;;;;;5066179;28;20086;-81
2022/05/27 09:12:05;;;;;;;13.95;2.88;;;15.30;99.90;;;;;;5066344;28;20077;-81
2022/05/27 09:14:31;;;;;;;15.82;2.85;;;15.10;99.90;;;;;;5060809;28;20399;-82
2022/05/27 09:17:04;;;;;;;18.95;3.00;;;15.20;99.90;;;;;;5087523;28;20458;-84
2022/05/27 09:19:50;;;;;;;21.27;3.03;;;15.30;99.90;;;;;;5063054;28;20060;-82
2022/05/27 09:22:42;;;;;;;14.05;2.72;;;15.20;99.90;;;;;;5076640;28;20035;-82
2022/05/27 09:25:15;;;;;;;16.48;2.83;;;15.20;99.90;;;;;;5071009;28;20040;-82
2022/05/27 09:27:57;;;;;;;16.90;3.33;;;15.40;99.90;;;;;;5071492;28;20124;-82
2022/05/27 09:30:23;;;;;;;23.42;3.90;;;15.50;99.90;;;;;;5054628;28;20526;-82
2022/05/27 09:32:57;;;;;;;17.40;3.00;;;15.40;99.90;;;;;;5068569;28;20052;-82
2022/05/27 09:35:30;;;;;;;19.88;3.92;;;15.60;99.90;;;;;;5082176;28;20051;-82
2022/05/27 09:38:01;;;;;;;18.88;3.30;;;15.50;99.90;;;;;;5107924;28;20079;-82
2022/05/27 09:40:37;;;;;;;14.23;2.83;;;15.90;99.90;;;;;;5072963;28;20040;-82
2022/05/27 09:43:21;;;;;;;17.38;3.22;;;16.00;99.90;;;;;;5067812;28;20050;-82
2022/05/27 09:45:56;;;;;;;20.77;3.65;;;15.90;99.90;;;;;;5073546;28;20044;-82
2022/05/27 09:48:22;;;;;;;17.70;3.05;;;15.70;99.90;;;;;;5051704;28;20040;-82
2022/05/27 09:50:49;;;;;;;15.48;2.90;;;15.60;99.90;;;;;;5103407;28;20475;-82
2022/05/27 09:53:22;;;;;;;13.27;2.97;;;15.80;99.90;;;;;;5075755;28;20093;-82
2022/05/27 09:55:57;;;;;;;15.77;2.95;;;15.80;99.90;;;;;;5069320;28;20056;-83
2022/05/27 09:58:26;;;;;;;24.05;3.22;;;15.80;99.90;;;;;;5051510;28;20048;-82
2022/05/27 10:00:52;;;;;;;18.55;3.28;;;15.90;99.90;;;;;;5066938;28;20495;-82
2022/05/27 10:03:32;;;;;;;19.38;3.00;;;15.90;99.90;;;;;;5048126;28;20537;-82
2022/05/27 10:06:01;;;;;;;20.33;3.80;;;15.70;99.90;;;;;;5052987;28;20047;-82
2022/05/27 10:08:30;;;;;;;14.63;3.08;;;15.60;99.90;;;;;;5048771;28;20464;-83
2022/05/27 10:11:08;;;;;;;15.48;2.75;;;15.70;99.90;;;;;;5051987;28;20551;-82
2022/05/27 10:13:34;;;;;;;18.73;3.42;;;16.00;99.90;;;;;;5087544;28;20054;-83
2022/05/27 10:16:10;;;;;;;16.30;3.10;;;15.90;99.90;;;;;;5069558;28;20113;-82
2022/05/27 10:18:37;;;;;;;14.20;2.83;;;15.70;99.90;;;;;;5067278;28;20076;-82
2022/05/27 10:21:10;;;;;;;17.42;3.03;;;15.80;99.90;;;;;;5086550;28;20441;-83
2022/05/27 10:23:39;;;;;;;13.68;3.03;;;15.80;99.90;;;;;;5087438;28;20929;-82
2022/05/27 10:26:22;;;;;;;20.33;3.53;;;15.60;99.90;;;;;;5067530;28;20044;-82
2022/05/27 10:29:04;;;;;;;;;;;15.60;99.90;;;;;;5048543;28;20535;-83
2022/05/27 10:31:30;;;;;;;17.70;3.80;;;15.70;99.90;;;;;;5066445;28;19977;-83
2022/05/27 10:33:57;;;;;;;19.80;3.42;;;15.80;99.90;;;;;;5065508;28;20056;-83
2022/05/27 10:36:54;;;;;;;20.92;4.07;;;15.70;99.90;;;;;;5049589;28;20602;-84
2022/05/27 10:39:30;;;;;;;20.52;3.65;;;15.30;99.90;;;;;;5056412;28;20079;-83
2022/05/27 10:42:02;;;;;;;21.70;3.47;;;15.60;99.90;;;;;;5066972;28;20048;-83
2022/05/27 10:44:50;;;;;;;18.55;2.97;;;15.90;99.90;;;;;;5033110;28;20186;-83
2022/05/27 10:47:35;;;;;;;22.63;3.22;;;16.10;99.90;;;;;;5048312;28;20080;-83
2022/05/27 10:50:06;;;;;;;22.73;3.50;;;16.10;99.90;;;;;;5047130;28;20056;-83
2022/05/27 10:52:43;;;;;;;16.05;3.33;;;16.00;99.90;;;;;;5049470;28;20066;-83
2022/05/27 10:55:19;;;;;;;20.92;3.35;;;16.00;99.90;;;;;;5032035;28;20053;-84
2022/05/27 11:04:29;;;;;;;19.13;3.20;;;15.90;99.90;;;;;;5048074;28;20395;-83
2022/05/27 11:07:48;;;;;;;20.48;3.00;;;16.10;99.90;;;;;;5048770;28;20080;-83
2022/05/27 11:10:26;;;;;;;18.35;2.90;;;16.00;99.90;;;;;;5031791;28;20098;-82
2022/05/27 11:16:15;;;;;;;16.98;3.20;;;15.90;99.90;;;;;;5048356;28;20045;-83
2022/05/27 11:19:19;;;;;;;16.00;3.13;;;15.90;99.90;;;;;;5062720;28;20102;-83
2022/05/27 11:21:49;;;;;;;16.70;3.40;;;16.00;99.90;;;;;;5048691;28;20049;-83
2022/05/27 11:24:48;;;;;;;24.52;3.58;;;16.00;99.90;;;;;;5048933;28;20412;-82
2022/05/27 11:27:29;;;;;;;14.05;2.60;;;16.00;99.90;;;;;;5048356;28;20049;-83
2022/05/27 11:30:08;;;;;;;19.23;3.60;;;16.00;99.90;;;;;;5031438;28;20048;-83
2022/05/27 11:32:58;;;;;;;18.85;3.45;;;16.20;99.90;;;;;;5049370;28;20048;-84
2022/05/27 11:35:35;;;;;;;19.10;3.30;;;16.30;99.90;;;;;;5047960;28;20111;-83
2022/05/27 11:38:25;;;;;;;18.33;3.42;;;16.30;99.90;;;;;;5048392;28;20127;-83
2022/05/27 11:41:15;;;;;;;21.23;2.83;;;16.20;99.90;;;;;;5032235;28;20045;-83
2022/05/27 11:43:46;;;;;;;15.80;2.78;;;16.00;99.90;;;;;;5048182;28;20045;-82
2022/05/27 11:46:20;;;;;;;14.63;3.00;;;15.80;99.90;;;;;;5047841;28;20079;-83
2022/05/27 11:49:13;;;;;;;16.85;3.65;;;15.70;99.90;;;;;;5048164;28;20106;-83
2022/05/27 11:51:47;;;;;;;17.55;3.63;;;15.60;99.90;;;;;;5046431;28;20196;-83
2022/05/27 11:54:32;;;;;;;21.27;3.35;;;15.50;99.90;;;;;;5047610;28;20420;-83
2022/05/27 11:57:06;;;;;;;19.13;2.92;;;15.40;99.90;;;;;;5047623;28;20550;-82
2022/05/27 11:59:36;;;;;;;18.60;3.47;;;15.30;99.90;;;;;;5032340;28;20381;-83
2022/05/27 12:02:13;;;;;;;17.88;2.50;;;15.40;99.90;;;;;;5048472;28;20373;-82
2022/05/27 12:04:57;;;;;;;12.52;2.42;;;15.50;99.90;;;;;;5064584;28;20572;-82
2022/05/27 12:07:36;;;;;;;20.15;3.35;;;15.50;99.90;;;;;;5047660;28;20102;-83
2022/05/27 12:10:23;;;;;;;20.67;2.90;;;15.50;99.90;;;;;;5047368;28;20063;-82
2022/05/27 12:12:56;;;;;;;16.73;3.38;;;15.50;99.90;;;;;;5047897;28;20048;-82
2022/05/27 12:15:34;;;;;;;27.80;3.03;;;15.30;99.90;;;;;;5064306;28;20453;-83
2022/05/27 12:18:02;;;;;;;16.95;2.95;;;15.30;99.90;;;;;;5046771;28;20047;-82
2022/05/27 12:20:35;;;;;;;16.88;3.05;;;15.40;99.90;;;;;;5048033;28;20065;-82
2022/05/27 12:23:07;;;;;;;16.27;3.42;;;15.40;99.90;;;;;;5064493;28;20126;-82
2022/05/27 12:25:42;;;;;;;24.92;3.30;;;15.40;99.90;;;;;;5065873;28;20449;-82
2022/05/27 12:28:08;;;;;;;14.63;2.80;;;15.30;99.90;;;;;;5030879;28;20395;-82
2022/05/27 12:30:40;;;;;;;16.13;3.22;;;15.20;99.90;;;;;;5066487;28;20075;-82
2022/05/27 12:33:10;;;;;;;19.55;3.25;;;15.20;99.90;;;;;;5062709;28;20106;-82
2022/05/27 12:35:36;;;;;;;23.45;3.50;;;15.20;99.90;;;;;;5065979;28;20040;-84
2022/05/27 12:38:15;;;;;;;17.13;3.63;;;15.30;99.90;;;;;;5063734;28;20423;-84
2022/05/27 12:40:48;;;;;;;24.33;4.25;;;15.50;99.90;;;;;;5046948;28;20350;-82
2022/05/27 12:43:16;;;;;;;16.33;3.47;;;15.90;99.90;;;;;;5047236;28;20412;-82
2022/05/27 12:45:53;;;;;;;16.60;3.08;;;16.10;99.90;;;;;;5046822;28;20383;-82
2022/05/27 12:48:33;;;;;;;18.65;3.47;;;16.00;99.90;;;;;;5046012;28;20079;-82
2022/05/27 12:51:30;;;;;;;23.35;3.25;;;15.70;99.90;;;;;;5045373;28;20082;-82
2022/05/27 12:53:58;;;;;;;13.25;2.83;;;15.50;99.90;;;;;;5046386;28;20062;-83
2022/05/27 13:02:14;;;;;;;20.25;3.60;;;15.00;99.90;;;;;;5045800;28;20135;-82
2022/05/27 13:04:56;;;;;;;16.65;2.72;;;15.00;99.90;;;;;;5046710;28;20127;-82
2022/05/27 13:07:43;;;;;;;15.05;3.05;;;15.20;99.90;;;;;;5046412;28;20044;-82
2022/05/27 13:10:18;;;;;;;15.77;2.95;;;15.30;99.90;;;;;;5047288;28;20044;-82
2022/05/27 13:12:45;;;;;;;24.63;3.30;;;15.20;99.90;;;;;;5054610;28;20048;-83
2022/05/27 13:15:22;;;;;;;15.18;2.83;;;15.20;99.90;;;;;;5062979;28;20051;-83
2022/05/27 13:17:53;;;;;;;16.17;3.22;;;15.30;99.90;;;;;;5058567;28;20671;-83
2022/05/27 13:20:22;;;;;;;19.63;3.22;;;15.40;99.90;;;;;;5051608;28;20095;-82
2022/05/27 13:23:02;;;;;;;15.20;2.75;;;15.60;99.90;;;;;;5067994;28;20044;-82
2022/05/27 13:25:37;;;;;;;11.93;2.80;;;15.50;99.90;;;;;;5066794;28;20044;-81
2022/05/27 13:28:10;;;;;;;17.02;3.17;;;15.60;99.90;;;;;;5068665;28;20071;-82
2022/05/27 13:30:49;;;;;;;20.63;3.42;;;15.50;99.90;;;;;;5080138;28;20052;-83
2022/05/27 13:33:18;;;;;;;18.63;2.85;;;15.20;99.90;;;;;;5087371;28;20051;-82
2022/05/27 13:35:47;;;;;;;17.23;2.55;;;15.30;99.90;;;;;;5074252;28;20066;-84
2022/05/27 13:38:20;;;;;;;16.85;3.60;;;15.20;99.90;;;;;;5067308;28;20501;-83
2022/05/27 13:40:46;;;;;;;21.40;3.58;;;15.20;99.90;;;;;;5073502;28;20039;-83
2022/05/27 13:43:19;;;;;;;17.98;2.90;;;15.10;99.90;;;;;;5072033;28;20048;-83